createdAt,value
2022-09-07T00:01:36.129Z,14.2
2022-09-07T00:03:37.225Z,9
2022-09-07T00:05:38.302Z,10.8
2022-09-07T00:07:42.579Z,6.4
2022-09-07T00:09:43.671Z,9.1
2022-09-07T00:11:44.763Z,11.5
2022-09-07T00:13:45.874Z,6.8
2022-09-07T00:15:47.068Z,8.9
2022-09-07T00:17:48.064Z,4.3
2022-09-07T00:19:49.167Z,7.3
2022-09-07T00:23:54.553Z,5.5
2022-09-07T00:25:55.639Z,6.4
2022-09-07T00:28:17.845Z,3.4
2022-09-07T00:30:18.934Z,4.1
2022-09-07T00:32:20.035Z,7.7
2022-09-07T00:34:24.309Z,5.6
2022-09-07T00:36:25.400Z,4.3
2022-09-07T00:38:26.583Z,12.8
2022-09-07T00:40:27.639Z,3.7
2022-09-07T00:44:29.840Z,2.5
2022-09-07T00:48:35.247Z,6.7
2022-09-07T00:50:36.326Z,4.2
2022-09-07T00:52:37.444Z,1.8
2022-09-07T00:54:38.552Z,2.1
2022-09-07T01:04:47.351Z,2.1
2022-09-07T01:06:48.453Z,1.4
2022-09-07T01:08:49.552Z,5.3
2022-09-07T01:10:50.662Z,8
2022-09-07T01:12:51.756Z,4.1
2022-09-07T01:14:52.883Z,5.4
2022-09-07T01:16:57.176Z,2.9
2022-09-07T01:18:58.264Z,3.1
2022-09-07T01:22:01.548Z,4.4
2022-09-07T01:24:02.645Z,4.3
2022-09-07T01:28:04.882Z,4.5
2022-09-07T01:30:09.171Z,7.6
2022-09-07T01:34:11.377Z,7.4
2022-09-07T01:36:12.472Z,7.2
2022-09-07T01:40:14.694Z,5.7
2022-09-07T01:42:15.785Z,4.4
2022-09-07T01:44:20.088Z,3.2
2022-09-07T01:46:21.236Z,12.3
2022-09-07T01:54:25.639Z,10.6
2022-09-07T01:56:26.767Z,6
2022-09-07T01:58:31.143Z,4.7
2022-09-07T02:00:32.146Z,2.4
2022-09-07T02:02:33.276Z,4.1
2022-09-07T02:06:35.485Z,8.2
2022-09-07T02:08:36.560Z,2.2
2022-09-07T02:12:41.959Z,3.6
2022-09-07T02:17:46.313Z,9.8
2022-09-07T02:19:47.440Z,2.6
2022-09-07T02:21:48.583Z,6.4
2022-09-07T02:27:55.102Z,7.6
2022-09-07T02:29:56.209Z,6.1
2022-09-07T02:31:57.309Z,3.2
2022-09-07T02:40:04.967Z,2.3
2022-09-07T02:42:06.029Z,4.3
2022-09-07T02:54:15.803Z,6.3
2022-09-07T02:56:16.907Z,16.9
2022-09-07T02:58:18.041Z,4.6
2022-09-07T03:00:19.183Z,10.6
2022-09-07T03:02:20.319Z,8.2
2022-09-07T03:06:22.484Z,7.7
2022-09-07T03:10:27.891Z,4.6
2022-09-07T03:12:28.999Z,8.2
2022-09-07T03:13:31.141Z,7.5
2022-09-07T03:15:32.474Z,8.9
2022-09-07T03:17:33.386Z,8.2
2022-09-07T03:19:34.518Z,4.4
2022-09-07T03:21:38.800Z,7.7
2022-09-07T03:23:39.894Z,10.6
2022-09-07T03:25:41.129Z,11.6
2022-09-07T03:27:42.110Z,6.7
2022-09-07T03:29:43.228Z,6
2022-09-07T03:31:44.349Z,3.6
2022-09-07T03:33:45.467Z,7.6
2022-09-07T03:35:49.760Z,7.3
2022-09-07T03:37:50.870Z,4.4
2022-09-07T03:39:52.036Z,5.7
2022-09-07T03:41:53.066Z,6.2
2022-09-07T03:43:54.180Z,4.3
2022-09-07T03:45:55.352Z,9.1
2022-09-07T03:52:01.871Z,7.5
2022-09-07T03:54:02.973Z,5.1
2022-09-07T03:56:04.098Z,7.1
2022-09-07T03:58:05.200Z,9.9
2022-09-07T04:00:06.339Z,5.5
2022-09-07T04:02:07.440Z,7.5
2022-09-07T04:04:11.719Z,7.3
2022-09-07T04:06:12.814Z,3.3
2022-09-07T04:08:13.917Z,6.3
2022-09-07T04:12:43.084Z,6.5
2022-09-07T04:14:45.742Z,2.8
2022-09-07T04:16:50.062Z,14.9
2022-09-07T04:18:51.086Z,8.7
2022-09-07T04:20:52.191Z,9.2
2022-09-07T04:22:54.416Z,4.6
2022-09-07T04:24:54.396Z,5.4
2022-09-07T04:26:55.520Z,7.4
2022-09-07T04:28:56.637Z,5.6
2022-09-07T04:31:00.961Z,6
2022-09-07T04:35:03.134Z,3.9
2022-09-07T04:37:04.267Z,13
2022-09-07T04:39:05.306Z,5.1
2022-09-07T04:41:06.421Z,7.8
2022-09-07T04:45:11.818Z,19.2
2022-09-07T04:47:12.937Z,9.4
2022-09-07T04:49:14.041Z,9.1
2022-09-07T04:51:15.147Z,11.3
2022-09-07T04:53:16.248Z,6.5
2022-09-07T04:55:17.363Z,8
2022-09-07T04:57:18.485Z,9.6
2022-09-07T04:59:22.740Z,7.1
2022-09-07T05:01:24.138Z,6
2022-09-07T05:03:24.961Z,6.8
2022-09-07T05:08:29.292Z,8.2
2022-09-07T05:10:30.405Z,11
2022-09-07T05:12:34.684Z,10.7
2022-09-07T05:14:35.772Z,10.4
2022-09-07T05:16:36.951Z,9.1
2022-09-07T05:18:37.967Z,15.9
2022-09-07T05:20:39.075Z,13.8
2022-09-07T05:22:40.163Z,7.5
2022-09-07T05:24:41.277Z,10.1
2022-09-07T05:26:45.586Z,7.7
2022-09-07T05:28:46.697Z,6.9
2022-09-07T05:31:17.496Z,6.2
2022-09-07T05:32:48.920Z,6.5
2022-09-07T05:34:52.847Z,11
2022-09-07T05:36:51.116Z,10.6
2022-09-07T05:38:52.217Z,12.1
2022-09-07T05:40:56.498Z,12.7
2022-09-07T05:42:57.580Z,13.3
2022-09-07T05:44:58.690Z,9.6
2022-09-07T05:46:59.809Z,21.4
2022-09-07T05:49:00.898Z,13
2022-09-07T05:51:02.012Z,16.6
2022-09-07T05:53:03.105Z,19.6
2022-09-07T05:55:28.804Z,15.9
2022-09-07T05:57:08.477Z,16.9
2022-09-07T05:59:09.563Z,18.2
2022-09-07T06:02:12.910Z,26
2022-09-07T06:04:13.911Z,18.7
2022-09-07T06:06:15.031Z,32.1
2022-09-07T06:08:19.282Z,22
2022-09-07T06:10:45.511Z,24.4
2022-09-07T06:12:21.478Z,27.4
2022-09-07T06:14:22.609Z,31.3
2022-09-07T06:16:23.691Z,33
2022-09-07T06:18:24.784Z,30.2
2022-09-07T06:20:25.876Z,36.1
2022-09-07T06:22:31.333Z,30.2
2022-09-07T06:24:31.458Z,31.8
2022-09-07T06:26:32.527Z,34.7
2022-09-07T06:28:33.634Z,30.1
2022-09-07T06:30:34.725Z,34.8
2022-09-07T06:32:43.206Z,31.1
2022-09-07T06:34:36.943Z,39.7
2022-09-07T06:36:41.209Z,32.8
2022-09-07T06:38:42.300Z,39.7
2022-09-07T06:40:43.368Z,38.3
2022-09-07T06:42:44.461Z,36.1
2022-09-07T06:44:45.576Z,33.7
2022-09-07T06:48:47.747Z,35.8
2022-09-07T06:55:56.399Z,31.4
2022-09-07T06:57:57.504Z,36.2
2022-09-07T06:59:58.597Z,35.4
2022-09-07T07:01:59.687Z,30.8
2022-09-07T07:04:03.951Z,25.8
2022-09-07T07:06:05.044Z,29.1
2022-09-07T07:08:06.127Z,27.3
2022-09-07T07:10:07.240Z,29.5
2022-09-07T07:12:08.308Z,27.8
2022-09-07T07:14:09.411Z,24.8
2022-09-07T07:16:10.545Z,31.7
2022-09-07T07:18:21.097Z,41
2022-09-07T07:20:15.896Z,29.2
2022-09-07T07:22:45.017Z,26.1
2022-09-07T07:24:18.078Z,50.4
2022-09-07T07:26:19.184Z,32.8
2022-09-07T07:30:21.385Z,29.8
2022-09-07T07:32:25.639Z,30.9
2022-09-07T07:34:26.764Z,46.4
2022-09-07T07:36:27.789Z,22.3
2022-09-07T07:42:31.051Z,23.5
2022-09-07T07:44:32.148Z,31.9
2022-09-07T07:46:36.491Z,22.5
2022-09-07T07:50:38.586Z,23.4
2022-09-07T07:54:59.768Z,21.3
2022-09-07T07:57:00.660Z,21.9
2022-09-07T07:59:04.923Z,22.1
2022-09-07T08:01:06.050Z,17.9
2022-09-07T08:03:07.084Z,21.6
2022-09-07T08:05:08.150Z,21.4
2022-09-07T08:07:10.596Z,23.5
2022-09-07T08:09:10.278Z,17.3
2022-09-07T08:15:16.691Z,26.4
2022-09-07T08:17:17.754Z,18
2022-09-07T08:19:18.845Z,24.3
2022-09-07T08:25:22.048Z,24.2
2022-09-07T08:27:26.297Z,24
2022-09-07T08:29:27.407Z,19.9
2022-09-07T08:31:28.515Z,20.5
2022-09-07T08:33:29.601Z,19.6
2022-09-07T08:35:30.543Z,27.8
2022-09-07T08:37:31.606Z,25.2
2022-09-07T08:39:32.733Z,24.5
2022-09-07T08:41:36.886Z,19.2
2022-09-07T08:43:37.906Z,19.1
2022-09-07T08:48:42.068Z,20.3
2022-09-07T08:50:43.054Z,20.1
2022-09-07T08:52:44.070Z,16.7
2022-09-07T08:54:48.287Z,16.4
2022-09-07T08:58:50.589Z,14.3
2022-09-07T09:01:30.686Z,17.1
2022-09-07T09:05:20.221Z,15.9
2022-09-07T09:06:54.389Z,15.4
2022-09-07T09:08:58.423Z,16.3
2022-09-07T09:10:59.409Z,24.2
2022-09-07T09:13:00.400Z,19
2022-09-07T09:15:01.387Z,15.3
2022-09-07T09:17:02.382Z,16
2022-09-07T09:19:03.347Z,19.7
2022-09-07T09:21:04.364Z,16.6
2022-09-07T09:23:08.528Z,21.4
2022-09-07T09:25:09.509Z,15.3
2022-09-07T09:27:10.472Z,17
2022-09-07T09:29:11.442Z,14.8
2022-09-07T09:31:12.490Z,18.3
2022-09-07T09:35:14.362Z,16.1
2022-09-07T09:37:18.619Z,23.4
2022-09-07T09:39:19.543Z,14.3
2022-09-07T09:41:20.491Z,22.3
2022-09-07T09:42:22.600Z,14.7
2022-09-07T09:44:23.565Z,11.1
2022-09-07T09:46:24.610Z,10.9
2022-09-07T09:48:25.542Z,14.9
2022-09-07T09:52:33.597Z,10.4
2022-09-07T09:54:31.538Z,16.3
2022-09-07T10:00:34.777Z,14.3
2022-09-07T10:04:40.956Z,17.1
2022-09-07T10:06:41.904Z,15.4
2022-09-07T10:08:42.804Z,11.8
2022-09-07T10:12:44.650Z,18.3
2022-09-07T10:14:45.579Z,10.7
2022-09-07T10:16:46.491Z,13.4
2022-09-07T10:18:50.626Z,14.8
2022-09-07T10:20:51.546Z,13.6
2022-09-07T10:22:52.460Z,13.1
2022-09-07T10:24:53.356Z,9.9
2022-09-07T10:29:08.300Z,13.2
2022-09-07T10:33:00.190Z,16.3
2022-09-07T10:35:01.078Z,11
2022-09-07T10:37:01.983Z,13
2022-09-07T10:38:04.045Z,11.5
2022-09-07T10:40:05.004Z,8
2022-09-07T10:42:05.809Z,11.5
2022-09-07T10:44:06.713Z,12.1
2022-09-07T10:46:11.224Z,7.4
2022-09-07T10:48:11.741Z,7.7
2022-09-07T10:50:24.177Z,10.8
2022-09-07T10:52:13.503Z,8.8
2022-09-07T10:54:30.685Z,9.4
2022-09-07T10:56:15.265Z,6.9
2022-09-07T11:00:20.257Z,8.6
2022-09-07T11:02:21.183Z,8.9
2022-09-07T11:04:21.987Z,6.4
2022-09-07T11:06:22.883Z,8.7
2022-09-07T11:08:23.747Z,17.7
2022-09-07T11:10:24.619Z,14.9
2022-09-07T11:12:28.110Z,18.9
2022-09-07T11:14:29.624Z,9.9
2022-09-07T11:20:32.288Z,6.5
2022-09-07T11:22:33.172Z,7.6
2022-09-07T11:24:34.078Z,6.6
2022-09-07T11:28:39.100Z,5.5
2022-09-07T11:32:40.899Z,19.6
2022-09-07T11:35:08.559Z,6.8
2022-09-07T11:37:09.468Z,6.8
2022-09-07T11:39:10.359Z,8.9
2022-09-07T11:41:14.510Z,6.2
2022-09-07T11:43:15.399Z,10.2
2022-09-07T11:45:16.299Z,6.2
2022-09-07T11:47:17.210Z,11.3
2022-09-07T11:49:18.106Z,7.8
2022-09-07T11:51:19.034Z,8.3
2022-09-07T11:53:19.951Z,7.5
2022-09-07T11:55:24.085Z,7.6
2022-09-07T12:01:26.832Z,8.6
2022-09-07T12:03:27.785Z,14.6
2022-09-07T12:05:28.689Z,7.4
2022-09-07T12:07:29.611Z,17.1
2022-09-07T12:09:33.762Z,17.2
2022-09-07T12:11:34.670Z,11.5
2022-09-07T12:17:37.451Z,10.1
2022-09-07T12:19:38.377Z,7.6
2022-09-07T12:21:39.307Z,4.3
2022-09-07T12:27:45.336Z,11.4
2022-09-07T12:28:47.403Z,9
2022-09-07T12:30:48.415Z,6.6
2022-09-07T12:32:53.953Z,10.9
2022-09-07T12:34:50.206Z,3.8
2022-09-07T12:36:54.390Z,7.4
2022-09-07T12:38:55.346Z,6.8
2022-09-07T12:40:56.273Z,7.6
2022-09-07T12:42:57.199Z,22.8
2022-09-07T12:44:58.138Z,11.1
2022-09-07T12:46:59.058Z,5.6
2022-09-07T12:49:00.057Z,10.7
2022-09-07T12:51:04.160Z,2.6
2022-09-07T12:53:05.095Z,8.6
2022-09-07T12:55:26.632Z,3.7
2022-09-07T12:57:30.486Z,8
2022-09-07T12:59:13.901Z,6.1
2022-09-07T13:01:09.401Z,8.7
2022-09-07T13:03:49.519Z,10.1
2022-09-07T13:05:14.426Z,6.9
2022-09-07T13:07:14.868Z,12.1
2022-09-07T13:09:15.837Z,5.1
2022-09-07T13:13:17.810Z,5.7
2022-09-07T13:17:19.575Z,11.3
2022-09-07T13:21:24.700Z,3
2022-09-07T13:23:25.566Z,3.5
2022-09-07T13:24:47.522Z,8.3
2022-09-07T13:26:28.560Z,9.7
2022-09-07T13:28:29.510Z,12.6
2022-09-07T13:38:37.396Z,10
2022-09-07T13:40:38.320Z,10.2
2022-09-07T13:42:39.253Z,16.2
2022-09-07T13:44:40.209Z,8.7
2022-09-07T13:52:47.182Z,6.4
2022-09-07T13:54:48.134Z,13
2022-09-07T13:56:49.047Z,4.1
2022-09-07T13:58:49.974Z,4.6
2022-09-07T14:06:56.941Z,3.8
2022-09-07T14:08:57.869Z,8.6
2022-09-07T14:10:58.805Z,13.3
2022-09-07T14:12:59.746Z,9.8
2022-09-07T14:17:04.951Z,14.9
2022-09-07T14:19:05.783Z,12.8
2022-09-07T14:20:07.859Z,10
2022-09-07T14:22:08.811Z,2.8
2022-09-07T14:24:09.746Z,8.3
2022-09-07T14:26:18.489Z,10.6
2022-09-07T14:30:15.783Z,5.7
2022-09-07T14:32:16.724Z,6.1
2022-09-07T14:34:17.672Z,4.1
2022-09-07T14:40:20.589Z,34.5
2022-09-07T14:42:24.677Z,4.5
2022-09-07T14:44:25.613Z,6.1
2022-09-07T14:46:26.554Z,2.9
2022-09-07T14:48:32.230Z,4.2
2022-09-07T14:50:28.427Z,6.9
2022-09-07T14:52:29.462Z,10
2022-09-07T14:54:30.278Z,22.4
2022-09-07T14:56:34.443Z,20.7
2022-09-07T14:58:35.375Z,7.4
2022-09-07T15:02:37.336Z,7.8
2022-09-07T15:08:40.083Z,5.1
2022-09-07T15:12:45.179Z,5.2
2022-09-07T15:14:47.621Z,24.7
2022-09-07T15:17:43.135Z,3.8
2022-09-07T15:19:14.796Z,15.4
2022-09-07T15:21:16.449Z,5.2
2022-09-07T15:23:19.901Z,5.3
2022-09-07T15:25:20.859Z,6.4
2022-09-07T15:27:21.864Z,2.7
2022-09-07T15:29:24.139Z,12
2022-09-07T15:31:54.402Z,5.2
2022-09-07T15:33:24.681Z,9.3
2022-09-07T15:35:25.628Z,3.3
2022-09-07T15:39:30.856Z,9.3
2022-09-07T15:41:31.728Z,12.8
2022-09-07T15:43:32.958Z,6.7
2022-09-07T15:45:33.688Z,9.3
2022-09-07T15:47:52.208Z,7.5
2022-09-07T15:49:35.527Z,1.3
2022-09-07T15:52:05.947Z,14.5
2022-09-07T15:54:11.255Z,23.3
2022-09-07T15:57:59.270Z,8.7
2022-09-07T15:59:45.009Z,14.5
2022-09-07T16:10:55.779Z,16.9
2022-09-07T16:13:10.454Z,24.6
2022-09-07T16:14:57.000Z,159.2
2022-09-07T16:17:27.131Z,129.2
2022-09-07T16:19:02.379Z,43.5
2022-09-07T16:21:03.102Z,8.4
2022-09-07T16:23:16.434Z,7.6
2022-09-07T16:25:04.999Z,7.8
2022-09-07T16:27:05.933Z,83.6
2022-09-07T16:29:06.916Z,20.2
2022-09-07T16:35:13.000Z,9.4
2022-09-07T16:37:13.970Z,37.3
2022-09-07T16:39:14.922Z,6.9
2022-09-07T16:41:15.886Z,11.2
2022-09-07T16:49:22.955Z,11.1
2022-09-07T16:51:23.944Z,18.9
2022-09-07T16:53:24.912Z,16.7
2022-09-07T16:58:35.092Z,12.2
2022-09-07T16:59:27.866Z,10.1
2022-09-07T17:01:32.078Z,40
2022-09-07T17:03:33.132Z,14.5
2022-09-07T17:05:33.988Z,6.1
2022-09-07T17:06:36.100Z,37.5
2022-09-07T17:08:37.075Z,46.3
2022-09-07T17:10:38.059Z,25.5
2022-09-07T17:12:39.030Z,12.3
2022-09-07T17:14:43.240Z,14
2022-09-07T17:16:44.326Z,9.8
2022-09-07T17:22:47.191Z,5.3
2022-09-07T17:26:49.161Z,16.7
2022-09-07T17:28:53.374Z,11.2
2022-09-07T17:30:56.817Z,7.4
2022-09-07T17:32:55.425Z,7.1
2022-09-07T17:34:56.347Z,8.8
2022-09-07T17:36:57.361Z,13.2
2022-09-07T17:45:04.666Z,25.8
2022-09-07T17:53:08.550Z,8.6
2022-09-07T17:55:09.574Z,9
2022-09-07T18:01:15.849Z,17.9
2022-09-07T18:02:17.905Z,13.4
2022-09-07T18:04:19.008Z,7
2022-09-07T18:06:19.929Z,11.5
2022-09-07T18:08:20.929Z,8.1
2022-09-07T18:10:25.309Z,7.4
2022-09-07T18:12:26.173Z,10.3
2022-09-07T18:14:27.177Z,8.4
2022-09-07T18:16:28.231Z,5.4
2022-09-07T18:18:29.198Z,3.4
2022-09-07T18:20:30.239Z,17.2
2022-09-07T18:22:31.246Z,6.2
2022-09-07T18:24:36.804Z,4.9
2022-09-07T18:26:36.495Z,9
2022-09-07T18:29:04.116Z,5.8
2022-09-07T18:30:38.544Z,4.7
2022-09-07T18:32:39.562Z,8.1
2022-09-07T18:34:41.504Z,13.3
2022-09-07T18:36:43.987Z,11
2022-09-07T18:38:45.850Z,4.7
2022-09-07T18:40:46.882Z,5.7
2022-09-07T18:42:47.909Z,9.6
2022-09-07T18:46:49.965Z,22.3
2022-09-07T18:48:51.000Z,8.8
2022-09-07T18:53:04.017Z,8.6
2022-09-07T19:05:53.121Z,15.7
2022-09-07T19:07:33.510Z,8.5
2022-09-07T19:09:34.538Z,11
2022-09-07T19:13:36.602Z,10
2022-09-07T19:15:37.978Z,10.6
2022-09-07T19:17:38.671Z,10.2
2022-09-07T19:19:42.912Z,17.6
2022-09-07T19:21:43.952Z,12.3
2022-09-07T19:23:44.987Z,8.1
2022-09-07T19:25:46.019Z,11.9
2022-09-07T19:27:47.064Z,12.2
2022-09-07T19:29:48.116Z,16.8
2022-09-07T19:33:53.395Z,20.7
2022-09-07T19:35:54.457Z,9.5
2022-09-07T19:37:55.477Z,9
2022-09-07T19:39:56.601Z,10.1
2022-09-07T19:41:57.558Z,15.1
2022-09-07T19:43:58.602Z,17.1
2022-09-07T19:45:59.636Z,5.8
2022-09-07T19:48:03.910Z,16.4
2022-09-07T19:50:04.960Z,10.5
2022-09-07T19:52:05.993Z,9.5
2022-09-07T19:53:08.114Z,13.5
2022-09-07T19:59:11.263Z,19.2
2022-09-07T20:01:15.585Z,10.7
2022-09-07T20:03:16.573Z,13.6
2022-09-07T20:05:17.620Z,11.7
2022-09-07T20:07:18.699Z,17.6
2022-09-07T20:09:19.772Z,15.5
2022-09-07T20:11:20.813Z,10.7
2022-09-07T20:13:21.848Z,8
2022-09-07T20:15:26.320Z,12.9
2022-09-07T20:17:30.620Z,15.8
2022-09-07T20:19:28.257Z,7.2
2022-09-07T20:21:29.313Z,6.8
2022-09-07T20:23:30.470Z,10.8
2022-09-07T20:37:41.061Z,6.1
2022-09-07T20:39:42.188Z,12.9
2022-09-07T20:41:43.191Z,9.3
2022-09-07T20:43:47.456Z,11.5
2022-09-07T20:45:48.545Z,14.5
2022-09-07T20:47:49.598Z,14.6
2022-09-07T20:48:51.726Z,14.6
2022-09-07T20:50:52.808Z,15.2
2022-09-07T20:52:53.927Z,10.6
2022-09-07T20:54:55.006Z,15.3
2022-09-07T20:57:03.376Z,8
2022-09-07T20:59:00.429Z,9.3
2022-09-07T21:01:01.618Z,12
2022-09-07T21:03:02.502Z,15.1
2022-09-07T21:05:03.579Z,15.4
2022-09-07T21:07:04.682Z,15.9
2022-09-07T21:09:05.780Z,12.7
2022-09-07T21:11:10.012Z,10.2
2022-09-07T21:13:11.125Z,13.4
2022-09-07T21:15:12.194Z,11
2022-09-07T21:17:13.296Z,13.8
2022-09-07T21:19:14.358Z,14.8
2022-09-07T21:21:20.096Z,16.5
2022-09-07T21:23:16.560Z,8.4
2022-09-07T21:25:20.822Z,22.5
2022-09-07T21:29:22.986Z,12.4
2022-09-07T21:31:24.208Z,10.1
2022-09-07T21:33:25.155Z,10.6
2022-09-07T21:35:26.252Z,13
2022-09-07T21:37:27.337Z,5.7
2022-09-07T21:41:34.261Z,13.3
2022-09-07T21:43:35.312Z,14.2
2022-09-07T21:44:37.456Z,13.4
2022-09-07T21:46:38.625Z,10.4
2022-09-07T21:52:45.016Z,11.4
2022-09-07T21:54:46.116Z,7
2022-09-07T21:58:48.302Z,19.9
2022-09-07T22:00:49.439Z,12.2
2022-09-07T22:02:50.493Z,8.7
2022-09-07T22:04:51.606Z,15.9
2022-09-07T22:06:55.855Z,8.5
2022-09-07T22:12:59.152Z,8.9
2022-09-07T22:15:00.270Z,11.9
2022-09-07T22:23:07.831Z,6.3
2022-09-07T22:33:13.311Z,9.5
2022-09-07T22:37:18.677Z,9.3
2022-09-07T22:39:19.774Z,11.8
2022-09-07T22:41:47.759Z,12.5
2022-09-07T22:43:48.852Z,18.6
2022-09-07T22:45:49.952Z,12.1
2022-09-07T22:47:54.229Z,24.7
2022-09-07T22:49:55.321Z,16.6
2022-09-07T22:51:56.421Z,38.2
2022-09-07T22:53:57.521Z,21
2022-09-07T22:57:59.697Z,17.5
2022-09-07T23:00:00.823Z,24.4
2022-09-07T23:02:05.078Z,17.4
2022-09-07T23:04:06.314Z,15.1
2022-09-07T23:06:07.251Z,27.6
2022-09-07T23:08:08.335Z,22.7
2022-09-07T23:10:09.437Z,23.8
2022-09-07T23:12:10.531Z,20.6
2022-09-07T23:16:15.956Z,22.5
2022-09-07T23:22:19.162Z,20.9
2022-09-07T23:24:20.229Z,19.1
2022-09-07T23:26:21.341Z,21.7
2022-09-07T23:30:26.695Z,17.4
2022-09-07T23:32:27.790Z,15.1
2022-09-07T23:34:28.887Z,16.2
2022-09-07T23:39:33.225Z,16.4
2022-09-07T23:41:34.288Z,22
2022-09-07T23:47:40.731Z,20.3
2022-09-07T23:49:41.842Z,23.5
2022-09-07T23:51:42.922Z,23.3
2022-09-07T23:53:43.997Z,25
2022-09-07T23:55:45.098Z,20.7
2022-09-07T23:57:49.395Z,26.2
